createdAt,value
2024-01-16T00:02:11.705Z,100.00
2024-01-16T00:04:39.015Z,100.00
2024-01-16T00:07:06.353Z,100.00
2024-01-16T00:09:36.578Z,100.00
2024-01-16T00:12:05.005Z,100.00
2024-01-16T00:14:36.541Z,100.00
2024-01-16T00:17:04.241Z,100.00
2024-01-16T00:19:31.897Z,100.00
2024-01-16T00:21:59.024Z,100.00
2024-01-16T00:24:26.139Z,100.00
2024-01-16T00:26:53.256Z,100.00
2024-01-16T00:29:20.536Z,100.00
2024-01-16T00:31:47.597Z,100.00
2024-01-16T00:34:15.076Z,100.00
2024-01-16T00:36:42.162Z,100.00
2024-01-16T00:39:09.351Z,100.00
2024-01-16T00:41:36.455Z,100.00
2024-01-16T00:44:04.156Z,100.00
2024-01-16T00:46:31.790Z,100.00
2024-01-16T00:48:58.915Z,100.00
2024-01-16T00:51:26.632Z,100.00
2024-01-16T00:53:53.716Z,100.00
2024-01-16T00:56:20.842Z,100.00
2024-01-16T00:58:47.899Z,100.00
2024-01-16T01:01:15.015Z,100.00
2024-01-16T01:03:42.085Z,100.00
2024-01-16T01:06:09.706Z,100.00
2024-01-16T01:08:36.838Z,100.00
2024-01-16T01:11:04.139Z,100.00
2024-01-16T01:13:31.265Z,100.00
2024-01-16T01:15:58.401Z,100.00
2024-01-16T01:18:25.578Z,100.00
2024-01-16T01:20:52.906Z,100.00
2024-01-16T01:23:20.027Z,100.00
2024-01-16T01:25:47.130Z,100.00
2024-01-16T01:28:14.273Z,100.00
2024-01-16T01:30:41.384Z,100.00
2024-01-16T01:33:08.586Z,100.00
2024-01-16T01:35:35.776Z,100.00
2024-01-16T01:38:03.171Z,100.00
2024-01-16T01:40:30.222Z,100.00
2024-01-16T01:42:57.240Z,100.00
2024-01-16T01:45:24.243Z,100.00
2024-01-16T01:47:51.545Z,100.00
2024-01-16T01:50:19.464Z,100.00
2024-01-16T01:52:46.801Z,100.00
2024-01-16T01:55:15.128Z,100.00
2024-01-16T01:57:44.230Z,100.00
2024-01-16T02:00:12.202Z,100.00
2024-01-16T02:02:42.790Z,100.00
2024-01-16T02:05:10.991Z,100.00
2024-01-16T02:07:39.260Z,100.00
2024-01-16T02:10:07.239Z,99.91
2024-01-16T02:12:34.417Z,100.00
2024-01-16T02:15:01.603Z,100.00
2024-01-16T02:17:28.715Z,100.00
2024-01-16T02:19:55.805Z,100.00
2024-01-16T02:22:29.362Z,100.00
2024-01-16T02:24:57.097Z,100.00
2024-01-16T02:27:24.125Z,100.00
2024-01-16T02:29:51.219Z,100.00
2024-01-16T02:32:18.489Z,100.00
2024-01-16T02:34:45.608Z,100.00
2024-01-16T02:37:12.743Z,100.00
2024-01-16T02:39:39.784Z,100.00
2024-01-16T02:42:07.366Z,100.00
2024-01-16T02:44:34.472Z,100.00
2024-01-16T02:47:02.048Z,100.00
2024-01-16T02:49:29.271Z,100.00
2024-01-16T02:51:56.326Z,100.00
2024-01-16T02:54:23.346Z,100.00
2024-01-16T02:56:50.965Z,100.00
2024-01-16T02:59:18.227Z,100.00
2024-01-16T03:01:45.560Z,100.00
2024-01-16T03:04:12.705Z,100.00
2024-01-16T03:06:40.376Z,100.00
2024-01-16T03:09:07.700Z,100.00
2024-01-16T03:11:34.973Z,100.00
2024-01-16T03:14:02.651Z,100.00
2024-01-16T03:16:30.004Z,100.00
2024-01-16T03:18:57.115Z,100.00
2024-01-16T03:21:24.314Z,100.00
2024-01-16T03:23:51.941Z,100.00
2024-01-16T03:26:19.265Z,100.00
2024-01-16T03:28:46.603Z,100.00
2024-01-16T03:31:16.677Z,100.00
2024-01-16T03:33:44.810Z,100.00
2024-01-16T03:36:13.921Z,100.00
2024-01-16T03:38:41.408Z,100.00
2024-01-16T03:41:09.050Z,100.00
2024-01-16T03:43:36.598Z,100.00
2024-01-16T03:46:04.283Z,100.00
2024-01-16T03:48:31.578Z,100.00
2024-01-16T03:50:58.889Z,100.00
2024-01-16T03:53:26.054Z,100.00
2024-01-16T03:55:53.123Z,99.81
2024-01-16T03:58:20.488Z,100.00
2024-01-16T04:00:48.247Z,99.82
2024-01-16T04:03:15.366Z,100.00
2024-01-16T04:05:42.572Z,100.00
2024-01-16T04:08:09.851Z,100.00
2024-01-16T04:10:36.950Z,100.00
2024-01-16T04:13:05.168Z,100.00
2024-01-16T04:15:32.426Z,100.00
2024-01-16T04:18:00.086Z,100.00
2024-01-16T04:20:27.163Z,100.00
2024-01-16T04:22:54.389Z,100.00
2024-01-16T04:25:21.491Z,100.00
2024-01-16T04:27:48.541Z,100.00
2024-01-16T04:30:15.835Z,100.00
2024-01-16T04:32:43.318Z,100.00
2024-01-16T04:35:10.719Z,100.00
2024-01-16T04:37:37.927Z,100.00
2024-01-16T04:40:06.472Z,100.00
2024-01-16T04:42:34.742Z,100.00
2024-01-16T04:45:02.446Z,100.00
2024-01-16T04:47:29.568Z,100.00
2024-01-16T04:49:56.668Z,100.00
2024-01-16T04:52:24.698Z,100.00
2024-01-16T04:54:51.762Z,100.00
2024-01-16T04:57:18.787Z,100.00
2024-01-16T04:59:45.849Z,100.00
2024-01-16T05:02:14.033Z,100.00
2024-01-16T05:04:41.090Z,100.00
2024-01-16T05:07:08.155Z,100.00
2024-01-16T05:09:35.177Z,100.00
2024-01-16T05:12:02.630Z,100.00
2024-01-16T05:14:30.333Z,100.00
2024-01-16T05:16:57.451Z,100.00
2024-01-16T05:19:24.611Z,100.00
2024-01-16T05:21:51.744Z,100.00
2024-01-16T05:24:18.772Z,100.00
2024-01-16T05:26:45.962Z,100.00
2024-01-16T05:29:13.329Z,100.00
2024-01-16T05:31:44.104Z,100.00
2024-01-16T05:34:11.810Z,100.00
2024-01-16T05:36:39.041Z,100.00
2024-01-16T05:39:06.149Z,100.00
2024-01-16T05:41:34.959Z,100.00
2024-01-16T05:44:04.768Z,100.00
2024-01-16T05:46:33.261Z,100.00
2024-01-16T05:49:00.621Z,100.00
2024-01-16T05:51:29.603Z,100.00
2024-01-16T05:53:57.573Z,100.00
2024-01-16T05:56:24.669Z,100.00
2024-01-16T05:58:53.115Z,100.00
2024-01-16T06:01:20.224Z,100.00
2024-01-16T06:03:49.759Z,100.00
2024-01-16T06:06:17.425Z,100.00
2024-01-16T06:08:44.634Z,100.00
2024-01-16T06:11:14.415Z,100.00
2024-01-16T06:13:42.120Z,100.00
2024-01-16T06:16:09.318Z,100.00
2024-01-16T06:18:37.008Z,100.00
2024-01-16T06:21:04.727Z,100.00
2024-01-16T06:23:31.944Z,100.00
2024-01-16T06:26:01.152Z,100.00
2024-01-16T06:28:28.771Z,100.00
2024-01-16T06:30:55.927Z,100.00
2024-01-16T06:33:23.228Z,100.00
2024-01-16T06:35:53.986Z,100.00
2024-01-16T06:38:21.733Z,100.00
2024-01-16T06:40:48.932Z,100.00
2024-01-16T06:43:16.811Z,100.00
2024-01-16T06:45:44.374Z,100.00
2024-01-16T06:48:11.966Z,100.00
2024-01-16T06:50:39.696Z,100.00
2024-01-16T06:53:06.716Z,100.00
2024-01-16T06:55:33.776Z,100.00
2024-01-16T06:58:00.886Z,100.00
2024-01-16T07:00:28.678Z,100.00
2024-01-16T07:02:56.011Z,100.00
2024-01-16T07:05:23.382Z,100.00
2024-01-16T07:07:50.553Z,100.00
2024-01-16T07:10:23.016Z,100.00
2024-01-16T07:12:50.666Z,100.00
2024-01-16T07:15:17.893Z,100.00
2024-01-16T07:17:45.236Z,100.00
2024-01-16T07:20:12.667Z,100.00
2024-01-16T07:22:42.905Z,100.00
2024-01-16T07:25:10.307Z,100.00
2024-01-16T07:27:37.718Z,100.00
2024-01-16T07:30:08.424Z,100.00
2024-01-16T07:32:36.074Z,100.00
2024-01-16T07:35:04.147Z,100.00
2024-01-16T07:37:31.459Z,100.00
2024-01-16T07:39:58.476Z,100.00
2024-01-16T07:42:26.011Z,100.00
2024-01-16T07:44:54.068Z,100.00
2024-01-16T07:47:21.183Z,100.00
2024-01-16T07:49:48.427Z,100.00
2024-01-16T07:52:15.546Z,100.00
2024-01-16T07:54:42.618Z,100.00
2024-01-16T07:57:09.662Z,100.00
2024-01-16T07:59:36.791Z,100.00
2024-01-16T08:02:03.917Z,100.00
2024-01-16T08:04:30.988Z,100.00
2024-01-16T08:06:58.199Z,100.00
2024-01-16T08:09:26.259Z,100.00
2024-01-16T08:11:53.332Z,100.00
2024-01-16T08:14:20.572Z,100.00
2024-01-16T08:16:47.668Z,100.00
2024-01-16T08:19:15.614Z,100.00
2024-01-16T08:21:42.863Z,100.00
2024-01-16T08:24:09.931Z,100.00
2024-01-16T08:26:36.985Z,100.00
2024-01-16T08:29:04.040Z,100.00
2024-01-16T08:31:31.069Z,100.00
2024-01-16T08:33:58.667Z,99.58
2024-01-16T08:36:25.884Z,99.02
2024-01-16T08:38:53.662Z,97.33
2024-01-16T08:41:21.289Z,95.89
2024-01-16T08:43:48.707Z,97.01
2024-01-16T08:46:16.430Z,97.48
2024-01-16T08:48:43.706Z,98.44
2024-01-16T08:51:15.873Z,96.39
2024-01-16T08:53:43.345Z,96.31
2024-01-16T08:56:10.833Z,96.93
2024-01-16T08:58:39.379Z,97.14
2024-01-16T09:01:06.807Z,97.05
2024-01-16T09:03:35.199Z,96.66
2024-01-16T09:06:04.085Z,97.90
2024-01-16T09:08:31.413Z,96.38
2024-01-16T09:10:58.602Z,96.14
2024-01-16T09:13:25.652Z,95.69
2024-01-16T09:15:52.740Z,95.65
2024-01-16T09:18:20.531Z,96.76
2024-01-16T09:20:48.548Z,95.16
2024-01-16T09:23:15.693Z,94.16
2024-01-16T09:25:45.395Z,95.03
2024-01-16T09:28:13.506Z,94.47
2024-01-16T09:30:40.546Z,94.90
2024-01-16T09:33:08.303Z,93.56
2024-01-16T09:35:35.774Z,92.36
2024-01-16T09:38:03.638Z,91.78
2024-01-16T09:40:30.694Z,91.91
2024-01-16T09:42:58.359Z,90.38
2024-01-16T09:45:26.166Z,89.57
2024-01-16T09:47:54.456Z,89.61
2024-01-16T09:50:22.509Z,87.79
2024-01-16T09:52:50.334Z,86.79
2024-01-16T09:55:17.557Z,87.11
2024-01-16T09:57:47.299Z,86.69
2024-01-16T10:00:16.541Z,85.21
2024-01-16T10:02:44.115Z,84.83
2024-01-16T10:05:12.578Z,84.37
2024-01-16T10:07:41.621Z,87.93
2024-01-16T10:10:19.522Z,84.68
2024-01-16T10:12:52.079Z,83.57
2024-01-16T10:15:21.271Z,85.07
2024-01-16T10:17:48.387Z,82.93
2024-01-16T10:20:18.187Z,85.09
2024-01-16T10:22:55.455Z,83.93
2024-01-16T10:25:23.709Z,85.39
2024-01-16T10:28:04.561Z,83.66
2024-01-16T10:30:31.934Z,83.93
2024-01-16T10:33:14.212Z,86.63
2024-01-16T10:35:42.151Z,85.35
2024-01-16T10:38:09.203Z,86.21
2024-01-16T10:40:36.325Z,82.51
2024-01-16T10:43:06.566Z,85.21
2024-01-16T10:45:34.688Z,82.89
2024-01-16T10:48:06.934Z,83.14
2024-01-16T10:50:36.427Z,83.33
2024-01-16T10:53:08.548Z,82.08
2024-01-16T10:55:49.080Z,83.54
2024-01-16T10:58:17.925Z,82.71
2024-01-16T11:00:52.871Z,82.34
2024-01-16T11:03:28.636Z,83.28
2024-01-16T11:05:59.161Z,84.42
2024-01-16T11:08:31.996Z,83.71
2024-01-16T11:11:01.937Z,83.22
2024-01-16T11:13:35.062Z,84.46
2024-01-16T11:16:05.145Z,85.20
2024-01-16T11:18:36.496Z,86.85
2024-01-16T11:21:09.696Z,85.65
2024-01-16T11:23:39.168Z,86.68
2024-01-16T11:26:35.616Z,85.73
2024-01-16T11:29:28.861Z,84.63
2024-01-16T11:32:12.805Z,82.74
2024-01-16T11:34:45.216Z,81.75
2024-01-16T11:37:13.431Z,81.01
2024-01-16T11:39:41.740Z,79.88
2024-01-16T11:42:11.908Z,76.10
2024-01-16T11:44:55.277Z,75.79
2024-01-16T11:47:24.695Z,75.37
2024-01-16T11:50:08.533Z,75.68
2024-01-16T11:52:45.924Z,73.26
2024-01-16T11:55:36.599Z,72.98
2024-01-16T11:58:12.632Z,72.62
2024-01-16T12:00:42.290Z,71.60
2024-01-16T12:03:11.761Z,72.83
2024-01-16T12:05:39.030Z,73.98
2024-01-16T12:08:07.290Z,74.81
2024-01-16T12:10:47.262Z,75.97
2024-01-16T12:13:14.455Z,73.15
2024-01-16T12:15:42.704Z,74.04
2024-01-16T12:18:19.582Z,77.08
2024-01-16T12:20:54.528Z,75.92
2024-01-16T12:23:23.165Z,73.76
2024-01-16T12:26:03.712Z,74.63
2024-01-16T12:28:33.705Z,76.11
2024-01-16T12:31:02.411Z,78.18
2024-01-16T12:33:30.329Z,76.38
2024-01-16T12:36:07.224Z,74.26
2024-01-16T12:38:34.689Z,78.33
2024-01-16T12:41:03.583Z,77.76
2024-01-16T12:43:33.013Z,77.86
2024-01-16T12:46:00.358Z,76.93
2024-01-16T12:48:28.341Z,75.36
2024-01-16T12:51:06.285Z,72.49
2024-01-16T12:53:35.360Z,71.66
2024-01-16T12:56:04.534Z,71.89
2024-01-16T12:58:36.247Z,70.54
2024-01-16T13:01:31.866Z,69.46
2024-01-16T13:04:06.159Z,69.39
2024-01-16T13:06:33.560Z,68.94
2024-01-16T13:09:20.221Z,68.33
2024-01-16T13:11:48.350Z,69.31
2024-01-16T13:14:15.473Z,69.06
2024-01-16T13:16:42.564Z,72.40
2024-01-16T13:19:11.985Z,69.74
2024-01-16T13:21:39.181Z,70.95
2024-01-16T13:24:07.245Z,73.41
2024-01-16T13:26:34.313Z,69.33
2024-01-16T13:29:01.732Z,66.53
2024-01-16T13:31:28.886Z,67.94
2024-01-16T13:33:57.697Z,65.62
2024-01-16T13:36:46.470Z,66.86
2024-01-16T13:39:14.162Z,67.61
2024-01-16T13:41:43.593Z,67.96
2024-01-16T13:44:10.685Z,67.65
2024-01-16T13:49:08.991Z,66.79
2024-01-16T13:51:36.395Z,69.92
2024-01-16T13:54:04.524Z,71.19
2024-01-16T13:56:48.739Z,68.41
2024-01-16T13:59:19.062Z,69.11
2024-01-16T14:01:46.282Z,69.67
2024-01-16T14:04:13.343Z,68.18
2024-01-16T14:06:56.215Z,66.34
2024-01-16T14:09:28.441Z,66.70
2024-01-16T14:11:55.558Z,66.13
2024-01-16T14:14:22.697Z,67.54
2024-01-16T14:16:54.629Z,66.45
2024-01-16T14:19:29.095Z,67.78
2024-01-16T14:21:56.266Z,67.30
2024-01-16T14:24:23.297Z,66.51
2024-01-16T14:26:50.545Z,70.22
2024-01-16T14:29:17.830Z,67.45
2024-01-16T14:31:45.146Z,70.00
2024-01-16T14:34:14.392Z,71.95
2024-01-16T14:36:42.468Z,74.78
2024-01-16T14:39:14.346Z,72.49
2024-01-16T14:41:42.523Z,73.74
2024-01-16T14:44:10.966Z,72.81
2024-01-16T14:46:38.160Z,73.72
2024-01-16T14:49:05.506Z,74.08
2024-01-16T14:51:33.556Z,75.01
2024-01-16T14:54:02.894Z,75.73
2024-01-16T14:56:31.378Z,77.77
2024-01-16T14:58:58.834Z,77.13
2024-01-16T15:01:26.144Z,79.69
2024-01-16T15:03:54.712Z,81.42
2024-01-16T15:06:22.563Z,81.83
2024-01-16T15:08:49.733Z,83.17
2024-01-16T15:11:18.204Z,84.42
2024-01-16T15:13:46.036Z,83.89
2024-01-16T15:16:13.257Z,85.62
2024-01-16T15:18:40.560Z,84.68
2024-01-16T15:21:08.043Z,85.00
2024-01-16T15:23:35.156Z,84.84
2024-01-16T15:26:04.357Z,83.55
2024-01-16T15:28:32.838Z,84.36
2024-01-16T15:31:07.383Z,85.93
2024-01-16T15:33:37.984Z,86.80
2024-01-16T15:36:05.544Z,85.91
2024-01-16T15:38:32.908Z,86.76
2024-01-16T15:41:00.107Z,86.50
2024-01-16T15:43:28.005Z,88.29
2024-01-16T15:45:55.843Z,88.31
2024-01-16T15:48:22.909Z,87.42
2024-01-16T15:50:50.083Z,87.02
2024-01-16T15:53:17.669Z,87.02
2024-01-16T15:55:45.093Z,87.75
2024-01-16T15:58:13.288Z,88.10
2024-01-16T16:00:40.529Z,89.26
2024-01-16T16:03:08.051Z,89.73
2024-01-16T16:05:35.348Z,90.92
2024-01-16T16:08:02.603Z,91.61
2024-01-16T16:10:29.675Z,91.58
2024-01-16T16:12:56.701Z,92.32
2024-01-16T16:15:23.817Z,92.94
2024-01-16T16:17:53.441Z,92.90
2024-01-16T16:20:25.496Z,93.23
2024-01-16T16:22:54.403Z,94.69
2024-01-16T16:25:21.518Z,95.18
2024-01-16T16:27:48.744Z,94.89
2024-01-16T16:30:16.115Z,95.08
2024-01-16T16:32:43.833Z,96.66
2024-01-16T16:35:11.435Z,96.96
2024-01-16T16:37:38.584Z,98.36
2024-01-16T16:40:07.053Z,98.86
2024-01-16T16:42:34.130Z,98.86
2024-01-16T16:45:01.860Z,98.81
2024-01-16T16:47:29.216Z,98.78
2024-01-16T16:49:56.366Z,99.34
2024-01-16T16:52:23.458Z,98.94
2024-01-16T16:54:50.664Z,98.83
2024-01-16T16:57:18.415Z,99.03
2024-01-16T16:59:46.487Z,99.14
2024-01-16T17:02:13.640Z,99.90
2024-01-16T17:04:41.073Z,100.00
2024-01-16T17:07:11.462Z,100.00
2024-01-16T17:09:41.305Z,100.00
2024-01-16T17:12:08.587Z,100.00
2024-01-16T17:14:35.917Z,100.00
2024-01-16T17:17:04.495Z,100.00
2024-01-16T17:19:31.692Z,100.00
2024-01-16T17:21:59.801Z,100.00
2024-01-16T17:24:27.727Z,100.00
2024-01-16T17:26:55.129Z,100.00
2024-01-16T17:29:22.298Z,100.00
2024-01-16T17:31:49.503Z,100.00
2024-01-16T17:34:17.622Z,99.91
2024-01-16T17:36:47.550Z,100.00
2024-01-16T17:39:16.520Z,99.29
2024-01-16T17:41:46.440Z,99.50
2024-01-16T17:44:13.858Z,99.07
2024-01-16T17:46:45.798Z,99.38
2024-01-16T17:49:13.648Z,98.66
2024-01-16T17:51:40.855Z,98.04
2024-01-16T17:54:07.998Z,98.13
2024-01-16T17:56:36.284Z,98.72
2024-01-16T17:59:05.027Z,98.15
2024-01-16T18:01:33.734Z,98.12
2024-01-16T18:04:01.442Z,97.00
2024-01-16T18:06:28.764Z,97.71
2024-01-16T18:08:56.072Z,96.42
2024-01-16T18:11:24.226Z,97.18
2024-01-16T18:13:51.327Z,96.29
2024-01-16T18:16:18.765Z,97.18
2024-01-16T18:18:46.196Z,96.67
2024-01-16T18:21:14.067Z,96.36
2024-01-16T18:23:42.077Z,97.42
2024-01-16T18:26:09.817Z,96.80
2024-01-16T18:28:37.103Z,97.02
2024-01-16T18:31:04.787Z,97.95
2024-01-16T18:33:33.609Z,97.14
2024-01-16T18:36:03.114Z,97.58
2024-01-16T18:38:30.226Z,97.42
2024-01-16T18:40:59.301Z,97.04
2024-01-16T18:43:28.694Z,97.23
2024-01-16T18:45:55.776Z,97.42
2024-01-16T18:48:22.985Z,97.05
2024-01-16T18:50:55.454Z,96.29
2024-01-16T18:53:23.125Z,96.51
2024-01-16T18:55:53.283Z,97.21
2024-01-16T18:58:21.794Z,97.17
2024-01-16T19:00:51.337Z,97.48
2024-01-16T19:03:19.927Z,97.20
2024-01-16T19:05:47.556Z,97.14
2024-01-16T19:08:15.256Z,96.81
2024-01-16T19:10:42.731Z,96.27
2024-01-16T19:13:12.170Z,96.33
2024-01-16T19:15:39.324Z,95.16
2024-01-16T19:18:07.051Z,96.15
2024-01-16T19:20:34.842Z,96.66
2024-01-16T19:23:03.936Z,96.31
2024-01-16T19:25:31.044Z,95.06
2024-01-16T19:27:58.884Z,94.60
2024-01-16T19:30:26.539Z,95.31
2024-01-16T19:32:53.792Z,95.53
2024-01-16T19:35:21.143Z,95.55
2024-01-16T19:37:48.175Z,94.58
2024-01-16T19:40:17.199Z,94.82
2024-01-16T19:42:44.821Z,94.23
2024-01-16T19:45:12.765Z,94.89
2024-01-16T19:47:41.788Z,93.28
2024-01-16T19:50:23.115Z,92.90
2024-01-16T19:52:56.186Z,94.19
2024-01-16T19:55:27.138Z,94.79
2024-01-16T19:57:55.266Z,94.58
2024-01-16T20:00:22.670Z,94.55
2024-01-16T20:02:50.660Z,94.82
2024-01-16T20:05:18.424Z,94.68
2024-01-16T20:07:46.453Z,95.22
2024-01-16T20:10:16.902Z,95.13
2024-01-16T20:12:46.464Z,95.36
2024-01-16T20:15:16.692Z,94.48
2024-01-16T20:17:45.229Z,94.88
2024-01-16T20:20:14.243Z,94.38
2024-01-16T20:22:42.250Z,94.77
2024-01-16T20:25:19.815Z,95.12
2024-01-16T20:27:47.642Z,95.23
2024-01-16T20:30:14.977Z,94.75
2024-01-16T20:32:53.994Z,95.00
2024-01-16T20:35:24.305Z,95.14
2024-01-16T20:37:51.518Z,93.69
2024-01-16T20:40:18.835Z,93.71
2024-01-16T20:42:45.861Z,91.82
2024-01-16T20:45:13.072Z,91.62
2024-01-16T20:47:41.126Z,92.04
2024-01-16T20:50:10.790Z,92.88
2024-01-16T20:52:38.380Z,92.11
2024-01-16T20:55:08.109Z,92.14
2024-01-16T20:57:36.145Z,91.54
2024-01-16T21:00:06.075Z,91.70
2024-01-16T21:02:33.393Z,92.05
2024-01-16T21:05:00.873Z,92.96
2024-01-16T21:07:28.515Z,93.47
2024-01-16T21:09:56.403Z,93.29
2024-01-16T21:12:23.895Z,93.21
2024-01-16T21:14:51.233Z,93.57
2024-01-16T21:17:18.516Z,94.94
2024-01-16T21:19:45.940Z,94.63
2024-01-16T21:22:16.645Z,94.33
2024-01-16T21:24:45.714Z,94.14
2024-01-16T21:27:15.386Z,93.93
2024-01-16T21:29:45.116Z,93.93
2024-01-16T21:32:12.478Z,92.88
2024-01-16T21:34:39.626Z,91.97
2024-01-16T21:37:06.804Z,93.12
2024-01-16T21:39:36.137Z,93.29
2024-01-16T21:42:04.269Z,92.93
2024-01-16T21:44:32.991Z,92.52
2024-01-16T21:47:00.136Z,92.93
2024-01-16T21:49:27.435Z,92.94
2024-01-16T21:51:54.521Z,91.99
2024-01-16T21:54:22.281Z,91.72
2024-01-16T21:56:49.462Z,91.96
2024-01-16T21:59:16.614Z,92.54
2024-01-16T22:01:46.985Z,92.70
2024-01-16T22:04:14.484Z,92.51
2024-01-16T22:06:42.505Z,93.54
2024-01-16T22:09:14.913Z,93.27
2024-01-16T22:11:42.702Z,93.16
2024-01-16T22:14:09.821Z,93.13
2024-01-16T22:16:36.836Z,93.20
2024-01-16T22:19:04.113Z,93.13
2024-01-16T22:21:33.993Z,92.81
2024-01-16T22:24:01.513Z,92.87
2024-01-16T22:26:28.861Z,92.21
2024-01-16T22:28:56.670Z,92.08
2024-01-16T22:31:23.733Z,91.62
2024-01-16T22:33:51.071Z,92.09
2024-01-16T22:36:19.764Z,91.35
2024-01-16T22:38:48.040Z,92.23
2024-01-16T22:41:15.140Z,91.82
2024-01-16T22:43:45.131Z,91.56
2024-01-16T22:46:12.236Z,91.87
2024-01-16T22:48:39.782Z,91.98
2024-01-16T22:51:07.164Z,91.35
2024-01-16T22:53:34.390Z,90.77
2024-01-16T22:56:01.553Z,92.34
2024-01-16T22:58:28.579Z,92.68
2024-01-16T23:00:55.667Z,92.44
2024-01-16T23:03:22.788Z,92.19
2024-01-16T23:05:50.118Z,92.52
2024-01-16T23:08:19.374Z,91.69
2024-01-16T23:10:47.420Z,91.24
2024-01-16T23:13:14.563Z,91.79
2024-01-16T23:15:41.628Z,91.76
2024-01-16T23:18:08.855Z,91.75
2024-01-16T23:20:36.121Z,91.33
2024-01-16T23:23:03.289Z,91.60
2024-01-16T23:25:30.381Z,91.00
2024-01-16T23:27:57.484Z,91.11
2024-01-16T23:30:24.963Z,90.49
2024-01-16T23:32:52.137Z,91.17
2024-01-16T23:35:20.168Z,91.89
2024-01-16T23:37:49.433Z,91.65
2024-01-16T23:40:18.353Z,92.34
2024-01-16T23:42:45.988Z,92.68
2024-01-16T23:45:23.498Z,92.64
2024-01-16T23:47:55.703Z,91.94
2024-01-16T23:50:23.078Z,91.98
2024-01-16T23:52:51.023Z,91.86
2024-01-16T23:55:19.020Z,91.71
2024-01-16T23:57:47.290Z,90.47
